Meteo Giornale » Osservazioni meteo Australia » Adelaide
ore: 02:30 - Osservazioni Meteo Adelaide
Lat. 34° 56' S Lon. 138° 31' E Alt. 6 metri s.l.m.
13 °C
Sereno
Temp. 24 Ore
3 °C
18 °C
Nord/Nord-Est
16.7 Km/h
Dew point 7 °C
Umidità 66 %
Visibilità 10 Km
Il sole sorge alle ore 06:35
Il sole tramonta alle ore 17:56
| Data e Ora | Cielo e Fenomeni | T °C | DP °C | Um. % | Pres. hPa | Vis. km | Vento km/h | |
|---|---|---|---|---|---|---|---|---|
| Oggi h: 02:30 | Sereno | 13 | 7 | 66 | 1020 | 10 | N/NE 16.7 | |
| Oggi h: 02:00 | Sereno | 12 | 7 | 71 | 1021 | 10 | N/NE 16.7 | |
| Oggi h: 01:30 | Sereno | 10 | 6 | 76 | 1021 | 10 | NE 16.7 | |
| Oggi h: 01:00 | Sereno | 10 | 6 | 76 | 1022 | 10 | NE 14.8 | |
| Oggi h: 00:30 | Sereno | 10 | 6 | 76 | 1022 | 10 | N/NE 13 | |
| Oggi h: 00:00 | Sereno | 11 | 6 | 71 | 1022 | 10 | N/NE 14.8 | |
| Ieri h: 23:30 | Sereno | 10 | 6 | 76 | 1023 | 10 | NE 13 | |
| Ieri h: 23:00 | Sereno | 10 | 6 | 76 | 1023 | 10 | N/NE 13 | |
| Ieri h: 22:30 | Sereno | 12 | 7 | 71 | 1024 | 10 | N 9.3 | |
| Ieri h: 22:00 | Sereno | 11 | 6 | 71 | 1024 | 10 | NE 13 | |
| Ieri h: 21:30 | Sereno | 11 | 7 | 76 | 1024 | 10 | N/NE 14.8 | |
| Ieri h: 21:00 | Sereno | 12 | 8 | 76 | 1024 | 10 | NE 11.1 | |
| Ieri h: 20:30 | Sereno | 11 | 9 | 87 | 1024 | 10 | NE 11.1 | |
| Ieri h: 20:00 | Sereno | 11 | 9 | 87 | 1024 | 10 | SE 7.4 | |
| Ieri h: 19:30 | Sereno | 12 | 10 | 87 | 1024 | 10 | N 5.5 | |
| Ieri h: 19:00 | Sereno | 12 | 10 | 87 | 1025 | 10 | N 0 | |
| Ieri h: 18:30 | Sereno | 15 | 10 | 72 | 1025 | 10 | N 5.5 | |
| Ieri h: 18:00 | Sereno | 15 | 11 | 76 | 1025 | 10 | N 5.5 | |
| Ieri h: 17:30 | Sereno | 16 | 11 | 72 | 1025 | 10 | O/SO 9.3 | |
| Ieri h: 17:00 | Sereno | 18 | 11 | 63 | 1025 | 10 | O/SO 7.4 | |
| Ieri h: 16:30 | Poco Nuvoloso | 18 | 11 | 63 | 1025 | 10 | SO 7.4 | |
| Ieri h: 16:00 | Poco Nuvoloso | 17 | 12 | 72 | 1025 | 10 | O/SO 13 | |
| Ieri h: 15:30 | Poco Nuvoloso | 17 | 12 | 72 | 1026 | 10 | O/SO 13 | |
| Ieri h: 15:00 | Poco Nuvoloso | 18 | 12 | 67 | 1026 | 10 | O 14.8 | |
| Ieri h: 14:30 | Poco Nuvoloso | 18 | 12 | 67 | 1026 | 10 | O/SO 13 | |
| Ieri h: 14:00 | Poco Nuvoloso | 18 | 11 | 63 | 1026 | 10 | O 13 | |
| Ieri h: 13:30 | Poco Nuvoloso | 18 | 12 | 67 | 1027 | 10 | O 14.8 | |
| Ieri h: 13:00 | Poco Nuvoloso | 18 | 11 | 63 | 1028 | 10 | O/SO 13 | |
| Ieri h: 12:30 | Poco Nuvoloso | 17 | 11 | 67 | 1028 | 10 | O/SO 13 | |
| Ieri h: 12:00 | Sereno | 17 | 11 | 67 | 1029 | 10 | O/SO 11.1 | |
| Ieri h: 11:30 | Sereno | 17 | 10 | 63 | 1030 | 10 | SO 9.3 | |
| Ieri h: 11:00 | Sereno | 16 | 10 | 67 | 1030 | 10 | O/SO 11.1 | |
| Ieri h: 10:30 | Sereno | 15 | 11 | 76 | 1030 | 10 | O/SO 11.1 | |
| Ieri h: 10:00 | Sereno | 16 | 9 | 63 | 1030 | 10 | N 3.7 | |
| Ieri h: 09:30 | Sereno | 14 | 10 | 76 | 1030 | 10 | N 1.8 | |
| Ieri h: 09:00 | Sereno | 13 | 10 | 81 | 1030 | 10 | N 1.8 | |
| Ieri h: 08:30 | Sereno | 13 | 10 | 81 | 1031 | 10 | N 1.8 | |
| Ieri h: 08:00 | Sereno | 10 | 8 | 87 | 1030 | 10 | N 3.7 | |
| Ieri h: 07:30 | Sereno | 7 | 7 | 100 | 1030 | 10 | N 0 | |
| Ieri h: 07:00 | Sereno | 4 | 4 | 100 | 1030 | 10 | E 7.4 | |
| Ieri h: 06:30 | Sereno | 3 | 3 | 100 | 1030 | 10 | N 0 | |
| Ieri h: 06:00 | Nebbia | 4 | 3 | 93 | 1030 | 10 | N 0 | |
| Ieri h: 05:54 | Nebbia | 4 | 3 | 93 | 1030 | 10 | N 0 | |
| Ieri h: 05:30 | Sereno | 5 | 4 | 93 | 1030 | 10 | N 1.8 | |
| Ieri h: 05:00 | Sereno | 4 | 4 | 100 | 1030 | 10 | N 0 | |
| Ieri h: 04:30 | Sereno | 5 | 4 | 93 | 1030 | 10 | N 1.8 | |
| Ieri h: 04:00 | Sereno | 5 | 4 | 93 | 1030 | 10 | N 0 | |
| Ieri h: 03:30 | Sereno | 6 | 5 | 93 | 1030 | 10 | N 5.5 | |



